sensor_id;sensor_type;location;lat;lon;timestamp;P1;durP1;ratioP1;P2;durP2;ratioP2
64678;SDS011;51094;53.864;27.676;2022-09-14T00:01:11;3.85;;;3.85;;
64678;SDS011;51094;53.864;27.676;2022-09-14T00:03:52;4.22;;;4.20;;
64678;SDS011;51094;53.864;27.676;2022-09-14T00:06:20;4.22;;;4.22;;
64678;SDS011;51094;53.864;27.676;2022-09-14T00:08:48;4.57;;;4.50;;
64678;SDS011;51094;53.864;27.676;2022-09-14T00:11:18;3.80;;;3.80;;
64678;SDS011;51094;53.864;27.676;2022-09-14T00:13:46;4.60;;;4.60;;
64678;SDS011;51094;53.864;27.676;2022-09-14T00:16:14;4.30;;;4.30;;
64678;SDS011;51094;53.864;27.676;2022-09-14T00:18:43;4.18;;;4.18;;
64678;SDS011;51094;53.864;27.676;2022-09-14T00:21:15;4.47;;;4.47;;
64678;SDS011;51094;53.864;27.676;2022-09-14T00:23:41;4.13;;;4.13;;
64678;SDS011;51094;53.864;27.676;2022-09-14T00:26:09;3.80;;;3.80;;
64678;SDS011;51094;53.864;27.676;2022-09-14T00:28:39;4.00;;;4.00;;
64678;SDS011;51094;53.864;27.676;2022-09-14T00:31:08;4.00;;;4.00;;
64678;SDS011;51094;53.864;27.676;2022-09-14T00:33:35;4.15;;;4.15;;
64678;SDS011;51094;53.864;27.676;2022-09-14T00:36:07;3.65;;;3.65;;
64678;SDS011;51094;53.864;27.676;2022-09-14T00:38:36;4.32;;;4.32;;
64678;SDS011;51094;53.864;27.676;2022-09-14T00:41:03;3.85;;;3.85;;
64678;SDS011;51094;53.864;27.676;2022-09-14T00:43:31;3.85;;;3.85;;
64678;SDS011;51094;53.864;27.676;2022-09-14T00:45:59;4.07;;;4.07;;
64678;SDS011;51094;53.864;27.676;2022-09-14T00:48:29;4.55;;;4.45;;
64678;SDS011;51094;53.864;27.676;2022-09-14T00:50:56;3.97;;;3.97;;
64678;SDS011;51094;53.864;27.676;2022-09-14T00:53:23;4.20;;;4.20;;
64678;SDS011;51094;53.864;27.676;2022-09-14T00:55:50;3.67;;;3.67;;
64678;SDS011;51094;53.864;27.676;2022-09-14T00:58:19;4.13;;;4.03;;
64678;SDS011;51094;53.864;27.676;2022-09-14T01:00:45;3.90;;;3.90;;
64678;SDS011;51094;53.864;27.676;2022-09-14T01:03:13;3.80;;;3.80;;
64678;SDS011;51094;53.864;27.676;2022-09-14T01:08:24;3.50;;;3.50;;
64678;SDS011;51094;53.864;27.676;2022-09-14T01:11:00;3.60;;;3.60;;
64678;SDS011;51094;53.864;27.676;2022-09-14T01:13:40;3.30;;;3.30;;
64678;SDS011;51094;53.864;27.676;2022-09-14T01:16:32;3.53;;;3.53;;
64678;SDS011;51094;53.864;27.676;2022-09-14T01:22:14;3.33;;;3.22;;
64678;SDS011;51094;53.864;27.676;2022-09-14T01:24:46;3.20;;;3.20;;
64678;SDS011;51094;53.864;27.676;2022-09-14T01:29:55;3.55;;;3.55;;
64678;SDS011;51094;53.864;27.676;2022-09-14T01:35:29;3.80;;;3.80;;
64678;SDS011;51094;53.864;27.676;2022-09-14T01:38:00;4.00;;;4.00;;
64678;SDS011;51094;53.864;27.676;2022-09-14T01:40:41;3.65;;;3.65;;
64678;SDS011;51094;53.864;27.676;2022-09-14T01:43:24;4.10;;;4.00;;
64678;SDS011;51094;53.864;27.676;2022-09-14T01:45:56;3.80;;;3.80;;
64678;SDS011;51094;53.864;27.676;2022-09-14T01:48:30;3.80;;;3.80;;
64678;SDS011;51094;53.864;27.676;2022-09-14T01:51:03;3.70;;;3.70;;
64678;SDS011;51094;53.864;27.676;2022-09-14T01:53:54;4.00;;;4.00;;
64678;SDS011;51094;53.864;27.676;2022-09-14T01:56:34;4.00;;;4.00;;
64678;SDS011;51094;53.864;27.676;2022-09-14T01:59:12;3.63;;;3.63;;
64678;SDS011;51094;53.864;27.676;2022-09-14T02:01:45;4.15;;;4.15;;
64678;SDS011;51094;53.864;27.676;2022-09-14T02:04:25;3.20;;;3.20;;
64678;SDS011;51094;53.864;27.676;2022-09-14T02:06:59;4.00;;;3.90;;
64678;SDS011;51094;53.864;27.676;2022-09-14T02:09:27;3.65;;;3.60;;
64678;SDS011;51094;53.864;27.676;2022-09-14T02:11:54;3.80;;;3.80;;
64678;SDS011;51094;53.864;27.676;2022-09-14T02:14:25;3.50;;;3.50;;
64678;SDS011;51094;53.864;27.676;2022-09-14T02:16:52;3.38;;;3.38;;
64678;SDS011;51094;53.864;27.676;2022-09-14T02:19:19;3.70;;;3.70;;
64678;SDS011;51094;53.864;27.676;2022-09-14T02:21:49;3.60;;;3.60;;
64678;SDS011;51094;53.864;27.676;2022-09-14T02:24:16;3.55;;;3.55;;
64678;SDS011;51094;53.864;27.676;2022-09-14T02:26:43;3.83;;;3.80;;
64678;SDS011;51094;53.864;27.676;2022-09-14T02:34:47;3.90;;;3.90;;
64678;SDS011;51094;53.864;27.676;2022-09-14T02:37:41;3.85;;;3.75;;
64678;SDS011;51094;53.864;27.676;2022-09-14T02:40:34;4.00;;;3.90;;
64678;SDS011;51094;53.864;27.676;2022-09-14T02:43:11;3.60;;;3.60;;
64678;SDS011;51094;53.864;27.676;2022-09-14T02:45:56;3.33;;;3.33;;
64678;SDS011;51094;53.864;27.676;2022-09-14T02:51:32;3.70;;;3.70;;
64678;SDS011;51094;53.864;27.676;2022-09-14T02:56:47;3.20;;;3.20;;
64678;SDS011;51094;53.864;27.676;2022-09-14T02:59:14;3.50;;;3.50;;
64678;SDS011;51094;53.864;27.676;2022-09-14T03:01:41;3.80;;;3.70;;
64678;SDS011;51094;53.864;27.676;2022-09-14T03:04:08;3.60;;;3.60;;
64678;SDS011;51094;53.864;27.676;2022-09-14T03:06:34;3.50;;;3.50;;
64678;SDS011;51094;53.864;27.676;2022-09-14T03:09:01;3.35;;;3.35;;
64678;SDS011;51094;53.864;27.676;2022-09-14T03:11:27;3.60;;;3.50;;
64678;SDS011;51094;53.864;27.676;2022-09-14T03:13:54;3.50;;;3.50;;
64678;SDS011;51094;53.864;27.676;2022-09-14T03:16:21;3.17;;;3.17;;
64678;SDS011;51094;53.864;27.676;2022-09-14T03:18:47;3.25;;;3.25;;
64678;SDS011;51094;53.864;27.676;2022-09-14T03:21:14;3.10;;;3.10;;
64678;SDS011;51094;53.864;27.676;2022-09-14T03:23:43;3.10;;;3.10;;
64678;SDS011;51094;53.864;27.676;2022-09-14T03:26:13;3.30;;;3.30;;
64678;SDS011;51094;53.864;27.676;2022-09-14T03:28:41;3.50;;;3.50;;
64678;SDS011;51094;53.864;27.676;2022-09-14T03:31:09;3.70;;;3.70;;
64678;SDS011;51094;53.864;27.676;2022-09-14T03:33:37;3.58;;;3.58;;
64678;SDS011;51094;53.864;27.676;2022-09-14T03:36:14;3.90;;;3.90;;
64678;SDS011;51094;53.864;27.676;2022-09-14T03:38:43;3.78;;;3.78;;
64678;SDS011;51094;53.864;27.676;2022-09-14T03:41:11;4.00;;;4.00;;
64678;SDS011;51094;53.864;27.676;2022-09-14T03:43:39;4.07;;;4.07;;
64678;SDS011;51094;53.864;27.676;2022-09-14T03:46:07;4.07;;;4.07;;
64678;SDS011;51094;53.864;27.676;2022-09-14T03:48:36;4.23;;;4.23;;
64678;SDS011;51094;53.864;27.676;2022-09-14T03:51:03;4.15;;;4.15;;
64678;SDS011;51094;53.864;27.676;2022-09-14T03:53:32;4.47;;;4.47;;
64678;SDS011;51094;53.864;27.676;2022-09-14T03:55:59;4.88;;;4.78;;
64678;SDS011;51094;53.864;27.676;2022-09-14T03:58:25;4.90;;;4.80;;
64678;SDS011;51094;53.864;27.676;2022-09-14T04:01:01;5.10;;;5.00;;
64678;SDS011;51094;53.864;27.676;2022-09-14T04:03:29;4.43;;;4.40;;
64678;SDS011;51094;53.864;27.676;2022-09-14T04:05:57;4.32;;;4.32;;
64678;SDS011;51094;53.864;27.676;2022-09-14T04:08:24;4.28;;;4.18;;
64678;SDS011;51094;53.864;27.676;2022-09-14T04:10:50;4.60;;;4.60;;
64678;SDS011;51094;53.864;27.676;2022-09-14T04:13:17;4.90;;;4.90;;
64678;SDS011;51094;53.864;27.676;2022-09-14T04:15:44;4.82;;;4.72;;
64678;SDS011;51094;53.864;27.676;2022-09-14T04:18:20;4.43;;;4.40;;
64678;SDS011;51094;53.864;27.676;2022-09-14T04:20:52;3.63;;;3.63;;
64678;SDS011;51094;53.864;27.676;2022-09-14T04:23:23;3.33;;;3.33;;
64678;SDS011;51094;53.864;27.676;2022-09-14T04:25:51;3.95;;;3.95;;
64678;SDS011;51094;53.864;27.676;2022-09-14T04:28:18;3.40;;;3.40;;
64678;SDS011;51094;53.864;27.676;2022-09-14T04:30:56;3.75;;;3.75;;
64678;SDS011;51094;53.864;27.676;2022-09-14T04:33:24;3.60;;;3.60;;
64678;SDS011;51094;53.864;27.676;2022-09-14T04:35:58;3.60;;;3.60;;
64678;SDS011;51094;53.864;27.676;2022-09-14T04:38:36;3.90;;;3.90;;
64678;SDS011;51094;53.864;27.676;2022-09-14T04:41:04;3.60;;;3.60;;
64678;SDS011;51094;53.864;27.676;2022-09-14T04:43:32;3.55;;;3.55;;
64678;SDS011;51094;53.864;27.676;2022-09-14T04:46:03;4.00;;;3.90;;
64678;SDS011;51094;53.864;27.676;2022-09-14T04:48:32;3.60;;;3.60;;
64678;SDS011;51094;53.864;27.676;2022-09-14T04:51:04;4.20;;;4.20;;
64678;SDS011;51094;53.864;27.676;2022-09-14T04:53:32;4.88;;;4.78;;
64678;SDS011;51094;53.864;27.676;2022-09-14T04:56:03;4.20;;;4.20;;
64678;SDS011;51094;53.864;27.676;2022-09-14T04:58:35;3.88;;;3.88;;
64678;SDS011;51094;53.864;27.676;2022-09-14T05:01:06;3.85;;;3.85;;
64678;SDS011;51094;53.864;27.676;2022-09-14T05:03:35;3.95;;;3.95;;
64678;SDS011;51094;53.864;27.676;2022-09-14T05:06:10;3.92;;;3.92;;
64678;SDS011;51094;53.864;27.676;2022-09-14T05:08:39;3.80;;;3.80;;
64678;SDS011;51094;53.864;27.676;2022-09-14T05:11:07;3.80;;;3.80;;
64678;SDS011;51094;53.864;27.676;2022-09-14T05:13:35;3.80;;;3.80;;
64678;SDS011;51094;53.864;27.676;2022-09-14T05:18:31;4.20;;;4.13;;
64678;SDS011;51094;53.864;27.676;2022-09-14T05:21:02;4.10;;;4.07;;
64678;SDS011;51094;53.864;27.676;2022-09-14T05:23:33;4.90;;;4.80;;
64678;SDS011;51094;53.864;27.676;2022-09-14T05:26:00;4.85;;;4.78;;
64678;SDS011;51094;53.864;27.676;2022-09-14T05:28:27;4.60;;;4.50;;
64678;SDS011;51094;53.864;27.676;2022-09-14T05:30:54;4.70;;;4.60;;
64678;SDS011;51094;53.864;27.676;2022-09-14T05:33:21;4.60;;;4.60;;
64678;SDS011;51094;53.864;27.676;2022-09-14T05:35:48;4.72;;;4.63;;
64678;SDS011;51094;53.864;27.676;2022-09-14T05:38:17;4.53;;;4.43;;
64678;SDS011;51094;53.864;27.676;2022-09-14T05:40:43;4.40;;;4.30;;
64678;SDS011;51094;53.864;27.676;2022-09-14T05:43:10;4.28;;;4.28;;
64678;SDS011;51094;53.864;27.676;2022-09-14T05:45:36;3.60;;;3.60;;
64678;SDS011;51094;53.864;27.676;2022-09-14T05:48:03;3.90;;;3.90;;
64678;SDS011;51094;53.864;27.676;2022-09-14T05:50:30;3.53;;;3.53;;
64678;SDS011;51094;53.864;27.676;2022-09-14T05:52:58;4.05;;;4.05;;
64678;SDS011;51094;53.864;27.676;2022-09-14T05:55:25;4.15;;;4.05;;
64678;SDS011;51094;53.864;27.676;2022-09-14T05:57:52;3.95;;;3.92;;
64678;SDS011;51094;53.864;27.676;2022-09-14T06:00:19;3.72;;;3.70;;
64678;SDS011;51094;53.864;27.676;2022-09-14T06:02:47;3.30;;;3.30;;
64678;SDS011;51094;53.864;27.676;2022-09-14T06:05:15;3.15;;;3.15;;
64678;SDS011;51094;53.864;27.676;2022-09-14T06:07:42;3.50;;;3.50;;
64678;SDS011;51094;53.864;27.676;2022-09-14T06:10:10;3.35;;;3.30;;
64678;SDS011;51094;53.864;27.676;2022-09-14T06:12:37;3.25;;;3.25;;
64678;SDS011;51094;53.864;27.676;2022-09-14T06:15:04;3.78;;;3.78;;
64678;SDS011;51094;53.864;27.676;2022-09-14T06:17:31;4.03;;;3.92;;
64678;SDS011;51094;53.864;27.676;2022-09-14T06:19:58;3.88;;;3.78;;
64678;SDS011;51094;53.864;27.676;2022-09-14T06:22:30;3.50;;;3.50;;
64678;SDS011;51094;53.864;27.676;2022-09-14T06:24:57;3.38;;;3.38;;
64678;SDS011;51094;53.864;27.676;2022-09-14T06:27:24;3.17;;;3.17;;
64678;SDS011;51094;53.864;27.676;2022-09-14T06:29:50;3.50;;;3.40;;
64678;SDS011;51094;53.864;27.676;2022-09-14T06:32:19;3.08;;;3.08;;
64678;SDS011;51094;53.864;27.676;2022-09-14T06:34:48;3.20;;;3.10;;
64678;SDS011;51094;53.864;27.676;2022-09-14T06:37:15;3.20;;;3.10;;
64678;SDS011;51094;53.864;27.676;2022-09-14T06:39:41;2.75;;;2.72;;
64678;SDS011;51094;53.864;27.676;2022-09-14T06:42:09;2.72;;;2.72;;
64678;SDS011;51094;53.864;27.676;2022-09-14T06:44:37;3.28;;;3.28;;
64678;SDS011;51094;53.864;27.676;2022-09-14T06:47:04;3.13;;;3.10;;
64678;SDS011;51094;53.864;27.676;2022-09-14T06:49:31;3.42;;;3.33;;
64678;SDS011;51094;53.864;27.676;2022-09-14T06:51:59;2.92;;;2.92;;
64678;SDS011;51094;53.864;27.676;2022-09-14T06:54:26;3.33;;;3.22;;
64678;SDS011;51094;53.864;27.676;2022-09-14T06:56:53;3.78;;;3.67;;
64678;SDS011;51094;53.864;27.676;2022-09-14T06:59:20;3.50;;;3.40;;
64678;SDS011;51094;53.864;27.676;2022-09-14T07:01:46;3.70;;;3.60;;
64678;SDS011;51094;53.864;27.676;2022-09-14T07:04:16;3.65;;;3.55;;
64678;SDS011;51094;53.864;27.676;2022-09-14T07:06:44;3.63;;;3.63;;
64678;SDS011;51094;53.864;27.676;2022-09-14T07:09:13;3.70;;;3.70;;
64678;SDS011;51094;53.864;27.676;2022-09-14T07:11:41;3.88;;;3.78;;
64678;SDS011;51094;53.864;27.676;2022-09-14T07:14:08;4.28;;;4.18;;
64678;SDS011;51094;53.864;27.676;2022-09-14T07:16:37;4.00;;;3.90;;
64678;SDS011;51094;53.864;27.676;2022-09-14T07:19:06;3.55;;;3.50;;
64678;SDS011;51094;53.864;27.676;2022-09-14T07:21:36;2.90;;;2.90;;
64678;SDS011;51094;53.864;27.676;2022-09-14T07:24:10;2.85;;;2.85;;
64678;SDS011;51094;53.864;27.676;2022-09-14T07:26:38;2.80;;;2.80;;
64678;SDS011;51094;53.864;27.676;2022-09-14T07:29:09;2.95;;;2.85;;
64678;SDS011;51094;53.864;27.676;2022-09-14T07:31:40;3.00;;;2.90;;
64678;SDS011;51094;53.864;27.676;2022-09-14T07:34:08;3.05;;;3.05;;
64678;SDS011;51094;53.864;27.676;2022-09-14T07:36:37;3.08;;;2.97;;
64678;SDS011;51094;53.864;27.676;2022-09-14T07:39:05;2.65;;;2.65;;
64678;SDS011;51094;53.864;27.676;2022-09-14T07:41:33;2.80;;;2.70;;
64678;SDS011;51094;53.864;27.676;2022-09-14T07:44:01;2.53;;;2.53;;
64678;SDS011;51094;53.864;27.676;2022-09-14T07:46:30;2.30;;;2.30;;
64678;SDS011;51094;53.864;27.676;2022-09-14T07:48:59;2.38;;;2.38;;
64678;SDS011;51094;53.864;27.676;2022-09-14T07:51:27;2.17;;;2.17;;
64678;SDS011;51094;53.864;27.676;2022-09-14T07:53:55;2.10;;;2.10;;
64678;SDS011;51094;53.864;27.676;2022-09-14T07:56:22;2.15;;;2.15;;
64678;SDS011;51094;53.864;27.676;2022-09-14T07:58:54;2.28;;;2.28;;
64678;SDS011;51094;53.864;27.676;2022-09-14T08:01:43;2.20;;;2.20;;
64678;SDS011;51094;53.864;27.676;2022-09-14T08:04:10;2.20;;;2.20;;
64678;SDS011;51094;53.864;27.676;2022-09-14T08:06:37;2.30;;;2.30;;
64678;SDS011;51094;53.864;27.676;2022-09-14T08:09:06;2.25;;;2.25;;
64678;SDS011;51094;53.864;27.676;2022-09-14T08:11:34;1.85;;;1.85;;
64678;SDS011;51094;53.864;27.676;2022-09-14T08:14:03;2.30;;;2.30;;
64678;SDS011;51094;53.864;27.676;2022-09-14T08:16:32;2.03;;;2.03;;
64678;SDS011;51094;53.864;27.676;2022-09-14T08:19:03;2.13;;;2.13;;
64678;SDS011;51094;53.864;27.676;2022-09-14T08:21:32;2.10;;;2.10;;
64678;SDS011;51094;53.864;27.676;2022-09-14T08:24:00;2.00;;;2.00;;
64678;SDS011;51094;53.864;27.676;2022-09-14T08:26:29;1.60;;;1.60;;
64678;SDS011;51094;53.864;27.676;2022-09-14T08:28:56;1.75;;;1.75;;
64678;SDS011;51094;53.864;27.676;2022-09-14T08:31:26;1.97;;;1.97;;
64678;SDS011;51094;53.864;27.676;2022-09-14T08:33:55;1.90;;;1.90;;
64678;SDS011;51094;53.864;27.676;2022-09-14T08:36:24;1.60;;;1.60;;
64678;SDS011;51094;53.864;27.676;2022-09-14T08:38:52;1.58;;;1.58;;
64678;SDS011;51094;53.864;27.676;2022-09-14T08:44:11;1.50;;;1.50;;
64678;SDS011;51094;53.864;27.676;2022-09-14T08:46:40;1.50;;;1.50;;
64678;SDS011;51094;53.864;27.676;2022-09-14T08:49:16;1.60;;;1.60;;
64678;SDS011;51094;53.864;27.676;2022-09-14T08:51:59;1.70;;;1.70;;
64678;SDS011;51094;53.864;27.676;2022-09-14T08:54:25;1.60;;;1.60;;
64678;SDS011;51094;53.864;27.676;2022-09-14T08:56:55;1.90;;;1.90;;
64678;SDS011;51094;53.864;27.676;2022-09-14T09:05:24;1.70;;;1.70;;
64678;SDS011;51094;53.864;27.676;2022-09-14T09:08:05;1.60;;;1.60;;
64678;SDS011;51094;53.864;27.676;2022-09-14T09:10:33;1.50;;;1.50;;
64678;SDS011;51094;53.864;27.676;2022-09-14T09:13:03;1.50;;;1.50;;
64678;SDS011;51094;53.864;27.676;2022-09-14T09:15:33;1.60;;;1.60;;
64678;SDS011;51094;53.864;27.676;2022-09-14T09:18:06;1.73;;;1.73;;
64678;SDS011;51094;53.864;27.676;2022-09-14T09:20:42;1.80;;;1.80;;
64678;SDS011;51094;53.864;27.676;2022-09-14T09:23:14;1.50;;;1.50;;
64678;SDS011;51094;53.864;27.676;2022-09-14T09:25:49;1.80;;;1.80;;
64678;SDS011;51094;53.864;27.676;2022-09-14T09:28:19;1.60;;;1.60;;
64678;SDS011;51094;53.864;27.676;2022-09-14T09:30:47;1.40;;;1.40;;
64678;SDS011;51094;53.864;27.676;2022-09-14T09:33:14;1.73;;;1.73;;
64678;SDS011;51094;53.864;27.676;2022-09-14T09:36:05;1.40;;;1.40;;
64678;SDS011;51094;53.864;27.676;2022-09-14T09:38:33;1.70;;;1.70;;
64678;SDS011;51094;53.864;27.676;2022-09-14T09:41:03;1.63;;;1.63;;
64678;SDS011;51094;53.864;27.676;2022-09-14T09:43:30;1.70;;;1.70;;
64678;SDS011;51094;53.864;27.676;2022-09-14T09:46:14;1.42;;;1.42;;
64678;SDS011;51094;53.864;27.676;2022-09-14T09:48:43;1.70;;;1.70;;
64678;SDS011;51094;53.864;27.676;2022-09-14T09:51:11;1.60;;;1.60;;
64678;SDS011;51094;53.864;27.676;2022-09-14T09:56:31;1.77;;;1.77;;
64678;SDS011;51094;53.864;27.676;2022-09-14T09:58:59;1.80;;;1.80;;
64678;SDS011;51094;53.864;27.676;2022-09-14T10:01:28;1.83;;;1.83;;
64678;SDS011;51094;53.864;27.676;2022-09-14T10:09:22;2.00;;;2.00;;
64678;SDS011;51094;53.864;27.676;2022-09-14T10:17:16;2.05;;;2.05;;
64678;SDS011;51094;53.864;27.676;2022-09-14T10:19:49;2.20;;;2.20;;
64678;SDS011;51094;53.864;27.676;2022-09-14T10:25:00;2.10;;;2.10;;
64678;SDS011;51094;53.864;27.676;2022-09-14T10:27:46;1.90;;;1.90;;
64678;SDS011;51094;53.864;27.676;2022-09-14T10:30:15;2.20;;;2.20;;
64678;SDS011;51094;53.864;27.676;2022-09-14T10:32:46;2.03;;;2.03;;
64678;SDS011;51094;53.864;27.676;2022-09-14T10:35:21;2.30;;;2.30;;
64678;SDS011;51094;53.864;27.676;2022-09-14T10:37:55;2.60;;;2.60;;
64678;SDS011;51094;53.864;27.676;2022-09-14T10:40:31;2.47;;;2.47;;
64678;SDS011;51094;53.864;27.676;2022-09-14T10:45:51;2.15;;;2.15;;
64678;SDS011;51094;53.864;27.676;2022-09-14T10:56:51;2.38;;;2.38;;
64678;SDS011;51094;53.864;27.676;2022-09-14T10:59:31;2.40;;;2.40;;
64678;SDS011;51094;53.864;27.676;2022-09-14T11:05:24;2.30;;;2.30;;
64678;SDS011;51094;53.864;27.676;2022-09-14T11:08:10;2.50;;;2.50;;
64678;SDS011;51094;53.864;27.676;2022-09-14T11:10:48;2.33;;;2.33;;
64678;SDS011;51094;53.864;27.676;2022-09-14T11:16:16;2.60;;;2.60;;
64678;SDS011;51094;53.864;27.676;2022-09-14T11:24:57;2.70;;;2.70;;
64678;SDS011;51094;53.864;27.676;2022-09-14T11:30:08;3.63;;;3.53;;
64678;SDS011;51094;53.864;27.676;2022-09-14T11:32:47;3.80;;;3.80;;
64678;SDS011;51094;53.864;27.676;2022-09-14T11:35:20;3.95;;;3.95;;
64678;SDS011;51094;53.864;27.676;2022-09-14T11:40:59;4.03;;;3.95;;
64678;SDS011;51094;53.864;27.676;2022-09-14T11:43:42;4.20;;;4.20;;
64678;SDS011;51094;53.864;27.676;2022-09-14T11:46:18;4.43;;;4.43;;
64678;SDS011;51094;53.864;27.676;2022-09-14T11:51:52;4.70;;;4.60;;
64678;SDS011;51094;53.864;27.676;2022-09-14T11:54:39;4.57;;;4.57;;
64678;SDS011;51094;53.864;27.676;2022-09-14T11:57:14;4.68;;;4.60;;
64678;SDS011;51094;53.864;27.676;2022-09-14T11:59:47;5.13;;;5.03;;
64678;SDS011;51094;53.864;27.676;2022-09-14T12:12:40;5.30;;;5.20;;
64678;SDS011;51094;53.864;27.676;2022-09-14T12:23:22;5.07;;;4.97;;
64678;SDS011;51094;53.864;27.676;2022-09-14T12:25:54;5.38;;;5.28;;
64678;SDS011;51094;53.864;27.676;2022-09-14T12:31:10;6.10;;;6.00;;
64678;SDS011;51094;53.864;27.676;2022-09-14T12:33:40;5.78;;;5.68;;
64678;SDS011;51094;53.864;27.676;2022-09-14T12:36:11;6.70;;;6.60;;
64678;SDS011;51094;53.864;27.676;2022-09-14T13:05:19;6.97;;;6.88;;
64678;SDS011;51094;53.864;27.676;2022-09-14T13:07:49;5.80;;;5.70;;
64678;SDS011;51094;53.864;27.676;2022-09-14T13:10:21;5.60;;;5.50;;
64678;SDS011;51094;53.864;27.676;2022-09-14T13:12:51;4.95;;;4.85;;
64678;SDS011;51094;53.864;27.676;2022-09-14T13:17:56;4.88;;;4.78;;
64678;SDS011;51094;53.864;27.676;2022-09-14T13:20:31;4.90;;;4.80;;
64678;SDS011;51094;53.864;27.676;2022-09-14T13:23:00;5.20;;;5.10;;
64678;SDS011;51094;53.864;27.676;2022-09-14T13:25:34;4.60;;;4.50;;
64678;SDS011;51094;53.864;27.676;2022-09-14T13:28:04;4.78;;;4.68;;
64678;SDS011;51094;53.864;27.676;2022-09-14T13:30:33;4.20;;;4.10;;
64678;SDS011;51094;53.864;27.676;2022-09-14T13:33:01;3.92;;;3.90;;
64678;SDS011;51094;53.864;27.676;2022-09-14T13:37:56;3.72;;;3.63;;
64678;SDS011;51094;53.864;27.676;2022-09-14T13:40:24;3.10;;;3.00;;
64678;SDS011;51094;53.864;27.676;2022-09-14T13:42:56;2.60;;;2.60;;
64678;SDS011;51094;53.864;27.676;2022-09-14T13:45:24;2.63;;;2.63;;
64678;SDS011;51094;53.864;27.676;2022-09-14T13:47:51;2.17;;;2.17;;
64678;SDS011;51094;53.864;27.676;2022-09-14T13:50:20;2.17;;;2.17;;
64678;SDS011;51094;53.864;27.676;2022-09-14T13:55:40;2.42;;;2.42;;
64678;SDS011;51094;53.864;27.676;2022-09-14T14:00:45;1.88;;;1.80;;
64678;SDS011;51094;53.864;27.676;2022-09-14T14:05:54;1.90;;;1.90;;
64678;SDS011;51094;53.864;27.676;2022-09-14T14:10:57;1.60;;;1.60;;
64678;SDS011;51094;53.864;27.676;2022-09-14T14:13:29;1.50;;;1.50;;
64678;SDS011;51094;53.864;27.676;2022-09-14T14:18:50;1.58;;;1.58;;
64678;SDS011;51094;53.864;27.676;2022-09-14T14:23:51;1.50;;;1.50;;
64678;SDS011;51094;53.864;27.676;2022-09-14T14:26:37;1.40;;;1.40;;
64678;SDS011;51094;53.864;27.676;2022-09-14T14:29:07;1.30;;;1.30;;
64678;SDS011;51094;53.864;27.676;2022-09-14T14:31:34;1.50;;;1.50;;
64678;SDS011;51094;53.864;27.676;2022-09-14T14:34:09;1.30;;;1.30;;
64678;SDS011;51094;53.864;27.676;2022-09-14T14:36:43;1.35;;;1.35;;
64678;SDS011;51094;53.864;27.676;2022-09-14T14:39:10;1.58;;;1.58;;
64678;SDS011;51094;53.864;27.676;2022-09-14T14:41:36;1.40;;;1.40;;
64678;SDS011;51094;53.864;27.676;2022-09-14T14:44:03;1.30;;;1.30;;
64678;SDS011;51094;53.864;27.676;2022-09-14T14:46:30;1.38;;;1.38;;
64678;SDS011;51094;53.864;27.676;2022-09-14T14:48:57;1.80;;;1.80;;
64678;SDS011;51094;53.864;27.676;2022-09-14T14:51:23;1.50;;;1.50;;
64678;SDS011;51094;53.864;27.676;2022-09-14T14:53:50;1.45;;;1.45;;
64678;SDS011;51094;53.864;27.676;2022-09-14T14:56:18;1.50;;;1.50;;
64678;SDS011;51094;53.864;27.676;2022-09-14T14:58:46;1.50;;;1.50;;
64678;SDS011;51094;53.864;27.676;2022-09-14T15:01:12;1.50;;;1.50;;
64678;SDS011;51094;53.864;27.676;2022-09-14T15:03:39;1.30;;;1.30;;
64678;SDS011;51094;53.864;27.676;2022-09-14T15:06:12;1.30;;;1.30;;
64678;SDS011;51094;53.864;27.676;2022-09-14T15:08:43;1.73;;;1.73;;
64678;SDS011;51094;53.864;27.676;2022-09-14T15:11:18;1.60;;;1.60;;
64678;SDS011;51094;53.864;27.676;2022-09-14T15:13:46;1.38;;;1.38;;
64678;SDS011;51094;53.864;27.676;2022-09-14T15:16:13;1.50;;;1.50;;
64678;SDS011;51094;53.864;27.676;2022-09-14T15:18:40;1.55;;;1.55;;
64678;SDS011;51094;53.864;27.676;2022-09-14T15:21:06;1.60;;;1.60;;
64678;SDS011;51094;53.864;27.676;2022-09-14T15:23:33;1.60;;;1.60;;
64678;SDS011;51094;53.864;27.676;2022-09-14T15:26:00;1.80;;;1.80;;
64678;SDS011;51094;53.864;27.676;2022-09-14T15:28:27;1.50;;;1.50;;
64678;SDS011;51094;53.864;27.676;2022-09-14T15:30:54;1.70;;;1.70;;
64678;SDS011;51094;53.864;27.676;2022-09-14T15:33:22;2.35;;;2.35;;
64678;SDS011;51094;53.864;27.676;2022-09-14T15:35:55;1.90;;;1.90;;
64678;SDS011;51094;53.864;27.676;2022-09-14T15:38:28;2.00;;;2.00;;
64678;SDS011;51094;53.864;27.676;2022-09-14T15:40:56;2.50;;;2.50;;
64678;SDS011;51094;53.864;27.676;2022-09-14T15:43:25;2.38;;;2.28;;
64678;SDS011;51094;53.864;27.676;2022-09-14T15:45:51;2.10;;;2.10;;
64678;SDS011;51094;53.864;27.676;2022-09-14T15:48:18;2.30;;;2.20;;
64678;SDS011;51094;53.864;27.676;2022-09-14T15:50:46;2.00;;;2.00;;
64678;SDS011;51094;53.864;27.676;2022-09-14T15:53:14;2.03;;;2.03;;
64678;SDS011;51094;53.864;27.676;2022-09-14T15:55:42;1.98;;;1.98;;
64678;SDS011;51094;53.864;27.676;2022-09-14T15:58:10;2.03;;;2.03;;
64678;SDS011;51094;53.864;27.676;2022-09-14T16:00:40;2.30;;;2.30;;
64678;SDS011;51094;53.864;27.676;2022-09-14T16:03:08;2.33;;;2.33;;
64678;SDS011;51094;53.864;27.676;2022-09-14T16:05:36;2.20;;;2.20;;
64678;SDS011;51094;53.864;27.676;2022-09-14T16:08:06;2.17;;;2.17;;
64678;SDS011;51094;53.864;27.676;2022-09-14T16:10:35;2.25;;;2.25;;
64678;SDS011;51094;53.864;27.676;2022-09-14T16:13:02;2.60;;;2.50;;
64678;SDS011;51094;53.864;27.676;2022-09-14T16:15:30;2.95;;;2.90;;
64678;SDS011;51094;53.864;27.676;2022-09-14T16:17:57;3.00;;;3.00;;
64678;SDS011;51094;53.864;27.676;2022-09-14T16:20:29;2.92;;;2.92;;
64678;SDS011;51094;53.864;27.676;2022-09-14T16:22:55;3.17;;;3.17;;
64678;SDS011;51094;53.864;27.676;2022-09-14T16:25:35;3.70;;;3.60;;
64678;SDS011;51094;53.864;27.676;2022-09-14T16:28:06;3.40;;;3.30;;
64678;SDS011;51094;53.864;27.676;2022-09-14T16:30:41;4.00;;;3.90;;
64678;SDS011;51094;53.864;27.676;2022-09-14T16:33:08;3.65;;;3.58;;
64678;SDS011;51094;53.864;27.676;2022-09-14T16:35:34;3.40;;;3.30;;
64678;SDS011;51094;53.864;27.676;2022-09-14T16:38:01;3.80;;;3.70;;
64678;SDS011;51094;53.864;27.676;2022-09-14T16:40:27;3.53;;;3.53;;
64678;SDS011;51094;53.864;27.676;2022-09-14T16:42:54;3.90;;;3.80;;
64678;SDS011;51094;53.864;27.676;2022-09-14T16:45:21;4.40;;;4.30;;
64678;SDS011;51094;53.864;27.676;2022-09-14T16:47:47;3.90;;;3.80;;
64678;SDS011;51094;53.864;27.676;2022-09-14T16:50:14;3.70;;;3.63;;
64678;SDS011;51094;53.864;27.676;2022-09-14T16:52:40;3.80;;;3.70;;
64678;SDS011;51094;53.864;27.676;2022-09-14T16:55:07;3.55;;;3.45;;
64678;SDS011;51094;53.864;27.676;2022-09-14T16:57:34;3.85;;;3.75;;
64678;SDS011;51094;53.864;27.676;2022-09-14T17:00:01;3.80;;;3.78;;
64678;SDS011;51094;53.864;27.676;2022-09-14T17:02:30;4.00;;;3.90;;
64678;SDS011;51094;53.864;27.676;2022-09-14T17:04:57;3.90;;;3.80;;
64678;SDS011;51094;53.864;27.676;2022-09-14T17:07:30;4.50;;;4.40;;
64678;SDS011;51094;53.864;27.676;2022-09-14T17:09:56;4.32;;;4.22;;
64678;SDS011;51094;53.864;27.676;2022-09-14T17:12:23;4.60;;;4.50;;
64678;SDS011;51094;53.864;27.676;2022-09-14T17:14:52;4.45;;;4.35;;
64678;SDS011;51094;53.864;27.676;2022-09-14T17:17:18;4.75;;;4.65;;
64678;SDS011;51094;53.864;27.676;2022-09-14T17:19:45;5.00;;;4.90;;
64678;SDS011;51094;53.864;27.676;2022-09-14T17:22:12;5.30;;;5.20;;